sensor_id;sensor_type;location;lat;lon;timestamp;P1;durP1;ratioP1;P2;durP2;ratioP2
83707;SDS011;73692;49.562;11.144;2023-12-14T00:00:25;13.93;;;8.47;;
83707;SDS011;73692;49.562;11.144;2023-12-14T00:05:16;11.70;;;7.07;;
83707;SDS011;73692;49.562;11.144;2023-12-14T00:10:06;14.13;;;8.20;;
83707;SDS011;73692;49.562;11.144;2023-12-14T00:14:57;14.73;;;8.90;;
83707;SDS011;73692;49.562;11.144;2023-12-14T00:19:48;14.80;;;8.23;;
83707;SDS011;73692;49.562;11.144;2023-12-14T00:24:38;14.50;;;7.17;;
83707;SDS011;73692;49.562;11.144;2023-12-14T00:29:29;13.82;;;7.47;;
83707;SDS011;73692;49.562;11.144;2023-12-14T00:34:19;11.83;;;6.83;;
83707;SDS011;73692;49.562;11.144;2023-12-14T00:39:10;15.27;;;7.57;;
83707;SDS011;73692;49.562;11.144;2023-12-14T00:44:01;11.33;;;6.33;;
83707;SDS011;73692;49.562;11.144;2023-12-14T00:48:51;15.03;;;6.93;;
83707;SDS011;73692;49.562;11.144;2023-12-14T00:51:16;12.33;;;7.10;;
83707;SDS011;73692;49.562;11.144;2023-12-14T00:56:08;10.50;;;6.70;;
83707;SDS011;73692;49.562;11.144;2023-12-14T00:58:33;12.93;;;7.32;;
83707;SDS011;73692;49.562;11.144;2023-12-14T01:03:24;10.77;;;6.13;;
83707;SDS011;73692;49.562;11.144;2023-12-14T01:08:14;13.50;;;6.93;;
83707;SDS011;73692;49.562;11.144;2023-12-14T01:13:05;12.93;;;8.00;;
83707;SDS011;73692;49.562;11.144;2023-12-14T01:17:55;12.10;;;7.10;;
83707;SDS011;73692;49.562;11.144;2023-12-14T01:22:46;13.03;;;6.90;;
83707;SDS011;73692;49.562;11.144;2023-12-14T01:25:11;16.13;;;7.77;;
83707;SDS011;73692;49.562;11.144;2023-12-14T01:30:02;15.97;;;8.10;;
83707;SDS011;73692;49.562;11.144;2023-12-14T01:34:52;13.53;;;7.53;;
83707;SDS011;73692;49.562;11.144;2023-12-14T01:39:43;15.37;;;8.03;;
83707;SDS011;73692;49.562;11.144;2023-12-14T01:44:33;13.37;;;7.20;;
83707;SDS011;73692;49.562;11.144;2023-12-14T01:49:24;16.47;;;7.63;;
83707;SDS011;73692;49.562;11.144;2023-12-14T01:54:14;16.23;;;8.70;;
83707;SDS011;73692;49.562;11.144;2023-12-14T01:59:05;15.80;;;7.50;;
83707;SDS011;73692;49.562;11.144;2023-12-14T02:04:10;14.98;;;7.22;;
83707;SDS011;73692;49.562;11.144;2023-12-14T02:06:36;13.95;;;7.72;;
83707;SDS011;73692;49.562;11.144;2023-12-14T02:11:26;13.40;;;6.85;;
83707;SDS011;73692;49.562;11.144;2023-12-14T02:16:17;12.90;;;7.30;;
83707;SDS011;73692;49.562;11.144;2023-12-14T02:21:09;14.07;;;8.13;;
83707;SDS011;73692;49.562;11.144;2023-12-14T02:25:59;13.40;;;7.70;;
83707;SDS011;73692;49.562;11.144;2023-12-14T02:30:50;15.13;;;7.80;;
83707;SDS011;73692;49.562;11.144;2023-12-14T02:35:40;16.33;;;7.83;;
83707;SDS011;73692;49.562;11.144;2023-12-14T02:40:31;16.77;;;8.07;;
83707;SDS011;73692;49.562;11.144;2023-12-14T02:45:21;14.67;;;8.27;;
83707;SDS011;73692;49.562;11.144;2023-12-14T02:50:13;16.23;;;8.55;;
83707;SDS011;73692;49.562;11.144;2023-12-14T02:55:04;18.83;;;9.07;;
83707;SDS011;73692;49.562;11.144;2023-12-14T02:57:29;24.33;;;9.45;;
83707;SDS011;73692;49.562;11.144;2023-12-14T03:02:20;16.87;;;9.37;;
83707;SDS011;73692;49.562;11.144;2023-12-14T03:07:10;20.13;;;10.50;;
83707;SDS011;73692;49.562;11.144;2023-12-14T03:12:03;16.63;;;9.00;;
83707;SDS011;73692;49.562;11.144;2023-12-14T03:14:31;19.92;;;10.45;;
83707;SDS011;73692;49.562;11.144;2023-12-14T03:16:58;21.27;;;10.18;;
83707;SDS011;73692;49.562;11.144;2023-12-14T03:21:48;21.43;;;9.90;;
83707;SDS011;73692;49.562;11.144;2023-12-14T03:26:39;19.55;;;10.18;;
83707;SDS011;73692;49.562;11.144;2023-12-14T03:29:04;16.15;;;7.78;;
83707;SDS011;73692;49.562;11.144;2023-12-14T03:33:54;15.33;;;8.53;;
83707;SDS011;73692;49.562;11.144;2023-12-14T03:38:47;13.88;;;6.28;;
83707;SDS011;73692;49.562;11.144;2023-12-14T03:43:38;14.77;;;7.50;;
83707;SDS011;73692;49.562;11.144;2023-12-14T03:48:28;15.38;;;7.32;;
83707;SDS011;73692;49.562;11.144;2023-12-14T03:53:19;22.17;;;9.00;;
83707;SDS011;73692;49.562;11.144;2023-12-14T03:55:44;17.02;;;8.40;;
83707;SDS011;73692;49.562;11.144;2023-12-14T03:58:10;23.97;;;10.17;;
83707;SDS011;73692;49.562;11.144;2023-12-14T04:03:00;18.77;;;9.90;;
83707;SDS011;73692;49.562;11.144;2023-12-14T04:07:50;17.97;;;9.47;;
83707;SDS011;73692;49.562;11.144;2023-12-14T04:12:41;20.77;;;9.17;;
83707;SDS011;73692;49.562;11.144;2023-12-14T04:17:33;22.05;;;9.18;;
83707;SDS011;73692;49.562;11.144;2023-12-14T04:22:24;19.20;;;10.23;;
83707;SDS011;73692;49.562;11.144;2023-12-14T04:27:15;27.65;;;11.38;;
83707;SDS011;73692;49.562;11.144;2023-12-14T04:32:05;20.60;;;8.80;;
83707;SDS011;73692;49.562;11.144;2023-12-14T04:36:56;18.30;;;8.83;;
83707;SDS011;73692;49.562;11.144;2023-12-14T04:39:23;18.48;;;9.45;;
83707;SDS011;73692;49.562;11.144;2023-12-14T04:41:51;24.13;;;10.45;;
83707;SDS011;73692;49.562;11.144;2023-12-14T04:44:17;20.50;;;10.10;;
83707;SDS011;73692;49.562;11.144;2023-12-14T04:46:46;20.30;;;9.73;;
83707;SDS011;73692;49.562;11.144;2023-12-14T04:51:37;19.00;;;9.68;;
83707;SDS011;73692;49.562;11.144;2023-12-14T04:56:28;18.60;;;9.50;;
83707;SDS011;73692;49.562;11.144;2023-12-14T05:01:19;21.47;;;10.23;;
83707;SDS011;73692;49.562;11.144;2023-12-14T05:03:44;21.67;;;10.68;;
83707;SDS011;73692;49.562;11.144;2023-12-14T05:08:35;20.10;;;10.07;;
83707;SDS011;73692;49.562;11.144;2023-12-14T05:13:25;21.70;;;10.53;;
83707;SDS011;73692;49.562;11.144;2023-12-14T05:18:19;21.98;;;10.07;;
83707;SDS011;73692;49.562;11.144;2023-12-14T05:23:11;18.00;;;10.27;;
83707;SDS011;73692;49.562;11.144;2023-12-14T05:25:36;19.35;;;9.70;;
83707;SDS011;73692;49.562;11.144;2023-12-14T05:30:27;20.87;;;9.80;;
83707;SDS011;73692;49.562;11.144;2023-12-14T05:35:17;18.67;;;8.60;;
83707;SDS011;73692;49.562;11.144;2023-12-14T05:40:09;19.17;;;9.40;;
83707;SDS011;73692;49.562;11.144;2023-12-14T05:42:34;17.92;;;8.60;;
83707;SDS011;73692;49.562;11.144;2023-12-14T05:47:28;21.57;;;9.83;;
83707;SDS011;73692;49.562;11.144;2023-12-14T05:49:55;20.42;;;10.18;;
83707;SDS011;73692;49.562;11.144;2023-12-14T05:54:45;18.63;;;8.40;;
83707;SDS011;73692;49.562;11.144;2023-12-14T05:59:38;21.05;;;8.48;;
83707;SDS011;73692;49.562;11.144;2023-12-14T06:04:30;17.83;;;9.00;;
83707;SDS011;73692;49.562;11.144;2023-12-14T06:09:20;18.92;;;7.82;;
83707;SDS011;73692;49.562;11.144;2023-12-14T06:11:49;19.35;;;9.25;;
83707;SDS011;73692;49.562;11.144;2023-12-14T06:14:16;20.02;;;9.88;;
83707;SDS011;73692;49.562;11.144;2023-12-14T06:19:06;16.73;;;8.43;;
83707;SDS011;73692;49.562;11.144;2023-12-14T06:23:57;19.27;;;9.52;;
83707;SDS011;73692;49.562;11.144;2023-12-14T06:26:24;24.10;;;9.77;;
83707;SDS011;73692;49.562;11.144;2023-12-14T06:31:14;23.27;;;10.43;;
83707;SDS011;73692;49.562;11.144;2023-12-14T06:36:06;17.47;;;9.27;;
83707;SDS011;73692;49.562;11.144;2023-12-14T06:38:32;22.67;;;10.52;;
83707;SDS011;73692;49.562;11.144;2023-12-14T06:43:23;19.73;;;8.53;;
83707;SDS011;73692;49.562;11.144;2023-12-14T06:48:14;21.87;;;9.67;;
83707;SDS011;73692;49.562;11.144;2023-12-14T06:53:04;22.27;;;9.90;;
83707;SDS011;73692;49.562;11.144;2023-12-14T06:57:55;20.53;;;9.50;;
83707;SDS011;73692;49.562;11.144;2023-12-14T07:02:45;23.87;;;9.50;;
83707;SDS011;73692;49.562;11.144;2023-12-14T07:07:36;19.50;;;10.03;;
83707;SDS011;73692;49.562;11.144;2023-12-14T07:12:26;21.50;;;10.30;;
83707;SDS011;73692;49.562;11.144;2023-12-14T07:17:17;21.07;;;9.97;;
83707;SDS011;73692;49.562;11.144;2023-12-14T07:22:07;25.50;;;9.63;;
83707;SDS011;73692;49.562;11.144;2023-12-14T07:26:58;23.17;;;11.13;;
83707;SDS011;73692;49.562;11.144;2023-12-14T07:31:48;23.57;;;10.60;;
83707;SDS011;73692;49.562;11.144;2023-12-14T07:36:39;27.70;;;12.03;;
83707;SDS011;73692;49.562;11.144;2023-12-14T07:41:31;22.35;;;10.50;;
83707;SDS011;73692;49.562;11.144;2023-12-14T07:43:57;25.00;;;11.80;;
83707;SDS011;73692;49.562;11.144;2023-12-14T07:48:48;23.60;;;11.27;;
83707;SDS011;73692;49.562;11.144;2023-12-14T07:53:39;20.93;;;10.80;;
83707;SDS011;73692;49.562;11.144;2023-12-14T07:56:06;27.35;;;11.25;;
83707;SDS011;73692;49.562;11.144;2023-12-14T08:00:56;29.03;;;11.63;;
83707;SDS011;73692;49.562;11.144;2023-12-14T08:05:47;45.87;;;25.00;;
83707;SDS011;73692;49.562;11.144;2023-12-14T08:10:37;27.63;;;12.83;;
83707;SDS011;73692;49.562;11.144;2023-12-14T08:15:28;20.73;;;9.53;;
83707;SDS011;73692;49.562;11.144;2023-12-14T08:17:54;21.52;;;11.02;;
83707;SDS011;73692;49.562;11.144;2023-12-14T08:22:45;19.25;;;9.73;;
83707;SDS011;73692;49.562;11.144;2023-12-14T08:27:40;23.13;;;10.07;;
83707;SDS011;73692;49.562;11.144;2023-12-14T08:32:31;24.88;;;10.98;;
83707;SDS011;73692;49.562;11.144;2023-12-14T08:37:21;23.90;;;11.30;;
83707;SDS011;73692;49.562;11.144;2023-12-14T08:42:12;26.90;;;12.55;;
83707;SDS011;73692;49.562;11.144;2023-12-14T08:47:05;20.13;;;9.70;;
83707;SDS011;73692;49.562;11.144;2023-12-14T08:51:56;24.93;;;11.30;;
83707;SDS011;73692;49.562;11.144;2023-12-14T08:56:46;44.70;;;22.37;;
83707;SDS011;73692;49.562;11.144;2023-12-14T09:01:38;27.67;;;15.60;;
83707;SDS011;73692;49.562;11.144;2023-12-14T09:04:03;21.88;;;12.07;;
83707;SDS011;73692;49.562;11.144;2023-12-14T09:08:54;23.70;;;11.87;;
83707;SDS011;73692;49.562;11.144;2023-12-14T09:13:44;22.63;;;10.83;;
83707;SDS011;73692;49.562;11.144;2023-12-14T09:18:35;25.20;;;12.15;;
83707;SDS011;73692;49.562;11.144;2023-12-14T09:23:25;20.83;;;10.27;;
83707;SDS011;73692;49.562;11.144;2023-12-14T09:28:16;24.40;;;11.80;;
83707;SDS011;73692;49.562;11.144;2023-12-14T09:33:07;20.60;;;9.90;;
83707;SDS011;73692;49.562;11.144;2023-12-14T09:35:33;24.10;;;11.35;;
83707;SDS011;73692;49.562;11.144;2023-12-14T09:38:00;23.95;;;12.50;;
83707;SDS011;73692;49.562;11.144;2023-12-14T09:42:51;23.30;;;10.80;;
83707;SDS011;73692;49.562;11.144;2023-12-14T09:47:42;24.63;;;11.18;;
83707;SDS011;73692;49.562;11.144;2023-12-14T09:52:33;32.33;;;16.80;;
83707;SDS011;73692;49.562;11.144;2023-12-14T09:54:58;22.27;;;11.25;;
83707;SDS011;73692;49.562;11.144;2023-12-14T09:59:54;23.58;;;11.00;;
83707;SDS011;73692;49.562;11.144;2023-12-14T10:02:19;19.73;;;10.77;;
83707;SDS011;73692;49.562;11.144;2023-12-14T10:04:49;27.13;;;11.73;;
83707;SDS011;73692;49.562;11.144;2023-12-14T10:09:41;25.70;;;13.25;;
83707;SDS011;73692;49.562;11.144;2023-12-14T10:12:07;22.15;;;11.88;;
83707;SDS011;73692;49.562;11.144;2023-12-14T10:14:34;21.27;;;10.27;;
83707;SDS011;73692;49.562;11.144;2023-12-14T10:17:13;18.75;;;10.73;;
83707;SDS011;73692;49.562;11.144;2023-12-14T10:19:45;53.40;;;26.42;;
83707;SDS011;73692;49.562;11.144;2023-12-14T10:22:13;34.17;;;19.00;;
83707;SDS011;73692;49.562;11.144;2023-12-14T10:24:39;21.83;;;11.38;;
83707;SDS011;73692;49.562;11.144;2023-12-14T10:27:08;23.10;;;10.30;;
83707;SDS011;73692;49.562;11.144;2023-12-14T10:32:00;19.10;;;10.10;;
83707;SDS011;73692;49.562;11.144;2023-12-14T10:34:26;18.02;;;9.68;;
83707;SDS011;73692;49.562;11.144;2023-12-14T10:39:17;20.83;;;11.10;;
83707;SDS011;73692;49.562;11.144;2023-12-14T10:41:45;21.60;;;9.98;;
83707;SDS011;73692;49.562;11.144;2023-12-14T10:44:13;22.33;;;10.38;;
83707;SDS011;73692;49.562;11.144;2023-12-14T10:49:04;18.43;;;10.33;;
83707;SDS011;73692;49.562;11.144;2023-12-14T10:51:31;26.30;;;11.70;;
83707;SDS011;73692;49.562;11.144;2023-12-14T10:56:22;24.53;;;10.60;;
83707;SDS011;73692;49.562;11.144;2023-12-14T11:01:13;20.30;;;10.30;;
83707;SDS011;73692;49.562;11.144;2023-12-14T11:03:40;21.83;;;10.35;;
83707;SDS011;73692;49.562;11.144;2023-12-14T11:09:01;28.48;;;11.55;;
83707;SDS011;73692;49.562;11.144;2023-12-14T11:14:18;24.17;;;11.63;;
83707;SDS011;73692;49.562;11.144;2023-12-14T11:16:45;26.65;;;10.90;;
83707;SDS011;73692;49.562;11.144;2023-12-14T11:26:55;25.97;;;12.40;;
83707;SDS011;73692;49.562;11.144;2023-12-14T11:31:47;26.58;;;11.77;;
83707;SDS011;73692;49.562;11.144;2023-12-14T11:36:38;27.42;;;13.10;;
83707;SDS011;73692;49.562;11.144;2023-12-14T11:39:07;24.02;;;11.73;;
83707;SDS011;73692;49.562;11.144;2023-12-14T11:41:32;25.05;;;13.07;;
83707;SDS011;73692;49.562;11.144;2023-12-14T11:43:59;26.95;;;13.45;;
83707;SDS011;73692;49.562;11.144;2023-12-14T11:48:49;23.30;;;11.43;;
83707;SDS011;73692;49.562;11.144;2023-12-14T11:51:15;23.10;;;10.90;;
83707;SDS011;73692;49.562;11.144;2023-12-14T11:56:08;25.80;;;12.07;;
83707;SDS011;73692;49.562;11.144;2023-12-14T12:01:16;23.02;;;12.13;;
83707;SDS011;73692;49.562;11.144;2023-12-14T12:03:42;21.48;;;12.27;;
83707;SDS011;73692;49.562;11.144;2023-12-14T12:06:20;24.88;;;12.15;;
83707;SDS011;73692;49.562;11.144;2023-12-14T12:08:47;24.17;;;13.48;;
83707;SDS011;73692;49.562;11.144;2023-12-14T12:13:41;23.10;;;12.32;;
83707;SDS011;73692;49.562;11.144;2023-12-14T12:18:31;23.20;;;12.03;;
83707;SDS011;73692;49.562;11.144;2023-12-14T12:23:28;26.65;;;14.15;;
83707;SDS011;73692;49.562;11.144;2023-12-14T12:28:20;22.52;;;10.68;;
83707;SDS011;73692;49.562;11.144;2023-12-14T12:30:46;26.33;;;12.32;;
83707;SDS011;73692;49.562;11.144;2023-12-14T12:35:37;21.67;;;11.57;;
83707;SDS011;73692;49.562;11.144;2023-12-14T12:40:28;25.70;;;12.32;;
83707;SDS011;73692;49.562;11.144;2023-12-14T12:42:55;24.02;;;13.07;;
83707;SDS011;73692;49.562;11.144;2023-12-14T12:47:47;21.92;;;11.55;;
83707;SDS011;73692;49.562;11.144;2023-12-14T12:52:38;21.95;;;12.35;;
83707;SDS011;73692;49.562;11.144;2023-12-14T12:57:32;20.25;;;10.70;;
83707;SDS011;73692;49.562;11.144;2023-12-14T13:02:23;17.47;;;9.07;;
83707;SDS011;73692;49.562;11.144;2023-12-14T13:07:13;18.93;;;9.53;;
83707;SDS011;73692;49.562;11.144;2023-12-14T13:12:04;16.50;;;8.87;;
83707;SDS011;73692;49.562;11.144;2023-12-14T13:16:56;16.60;;;9.27;;
83707;SDS011;73692;49.562;11.144;2023-12-14T13:19:23;18.80;;;9.73;;
83707;SDS011;73692;49.562;11.144;2023-12-14T13:24:13;13.93;;;8.50;;
83707;SDS011;73692;49.562;11.144;2023-12-14T13:29:04;14.40;;;8.43;;
83707;SDS011;73692;49.562;11.144;2023-12-14T13:33:55;14.63;;;9.37;;
83707;SDS011;73692;49.562;11.144;2023-12-14T13:38:45;17.67;;;8.00;;
83707;SDS011;73692;49.562;11.144;2023-12-14T13:43:36;15.83;;;8.70;;
83707;SDS011;73692;49.562;11.144;2023-12-14T13:48:27;14.75;;;7.80;;
83707;SDS011;73692;49.562;11.144;2023-12-14T13:50:53;10.55;;;6.20;;
83707;SDS011;73692;49.562;11.144;2023-12-14T13:55:44;10.18;;;5.22;;
83707;SDS011;73692;49.562;11.144;2023-12-14T14:00:35;8.97;;;4.47;;
83707;SDS011;73692;49.562;11.144;2023-12-14T14:05:28;9.20;;;5.05;;
83707;SDS011;73692;49.562;11.144;2023-12-14T14:10:19;7.07;;;3.73;;
83707;SDS011;73692;49.562;11.144;2023-12-14T14:15:10;8.88;;;4.88;;
83707;SDS011;73692;49.562;11.144;2023-12-14T14:20:01;6.78;;;3.75;;
83707;SDS011;73692;49.562;11.144;2023-12-14T14:24:51;11.63;;;5.17;;
83707;SDS011;73692;49.562;11.144;2023-12-14T14:29:41;10.57;;;5.03;;
83707;SDS011;73692;49.562;11.144;2023-12-14T14:34:35;9.57;;;4.87;;
83707;SDS011;73692;49.562;11.144;2023-12-14T14:37:00;9.05;;;5.13;;
83707;SDS011;73692;49.562;11.144;2023-12-14T14:41:51;9.57;;;5.03;;
83707;SDS011;73692;49.562;11.144;2023-12-14T14:46:42;9.65;;;5.43;;
83707;SDS011;73692;49.562;11.144;2023-12-14T14:51:32;11.83;;;6.10;;
83707;SDS011;73692;49.562;11.144;2023-12-14T14:56:23;12.90;;;6.53;;
83707;SDS011;73692;49.562;11.144;2023-12-14T14:58:48;12.50;;;6.37;;
83707;SDS011;73692;49.562;11.144;2023-12-14T15:03:39;10.70;;;6.43;;
83707;SDS011;73692;49.562;11.144;2023-12-14T15:08:29;11.77;;;5.95;;
83707;SDS011;73692;49.562;11.144;2023-12-14T15:13:23;11.55;;;6.68;;
83707;SDS011;73692;49.562;11.144;2023-12-14T15:18:14;9.65;;;6.05;;
83707;SDS011;73692;49.562;11.144;2023-12-14T15:23:05;11.18;;;6.53;;
83707;SDS011;73692;49.562;11.144;2023-12-14T15:25:33;14.25;;;7.78;;
83707;SDS011;73692;49.562;11.144;2023-12-14T15:30:23;13.53;;;6.90;;
83707;SDS011;73692;49.562;11.144;2023-12-14T15:35:14;14.67;;;7.53;;
83707;SDS011;73692;49.562;11.144;2023-12-14T15:40:04;13.50;;;7.87;;
83707;SDS011;73692;49.562;11.144;2023-12-14T15:44:55;13.15;;;7.13;;
83707;SDS011;73692;49.562;11.144;2023-12-14T15:49:47;14.00;;;7.88;;
83707;SDS011;73692;49.562;11.144;2023-12-14T15:54:38;14.93;;;7.67;;
83707;SDS011;73692;49.562;11.144;2023-12-14T15:59:29;8.05;;;4.00;;
83707;SDS011;73692;49.562;11.144;2023-12-14T16:01:55;6.47;;;3.90;;
83707;SDS011;73692;49.562;11.144;2023-12-14T16:06:46;5.73;;;3.13;;
83707;SDS011;73692;49.562;11.144;2023-12-14T16:11:36;4.80;;;2.63;;
83707;SDS011;73692;49.562;11.144;2023-12-14T16:16:27;5.07;;;2.70;;
83707;SDS011;73692;49.562;11.144;2023-12-14T16:21:17;5.03;;;2.60;;
83707;SDS011;73692;49.562;11.144;2023-12-14T16:23:42;5.20;;;3.10;;
83707;SDS011;73692;49.562;11.144;2023-12-14T16:26:10;6.43;;;2.53;;
83707;SDS011;73692;49.562;11.144;2023-12-14T16:28:36;4.03;;;2.63;;
83707;SDS011;73692;49.562;11.144;2023-12-14T16:33:27;4.57;;;2.75;;
83707;SDS011;73692;49.562;11.144;2023-12-14T16:35:53;4.55;;;2.53;;
83707;SDS011;73692;49.562;11.144;2023-12-14T16:40:43;4.27;;;2.50;;
83707;SDS011;73692;49.562;11.144;2023-12-14T16:43:09;4.53;;;2.90;;
83707;SDS011;73692;49.562;11.144;2023-12-14T16:47:59;4.33;;;2.80;;
83707;SDS011;73692;49.562;11.144;2023-12-14T16:52:50;4.57;;;2.03;;
83707;SDS011;73692;49.562;11.144;2023-12-14T16:57:41;5.17;;;2.90;;
83707;SDS011;73692;49.562;11.144;2023-12-14T17:02:31;4.38;;;2.67;;
83707;SDS011;73692;49.562;11.144;2023-12-14T17:07:23;3.90;;;2.67;;
83707;SDS011;73692;49.562;11.144;2023-12-14T17:09:50;4.05;;;2.60;;
83707;SDS011;73692;49.562;11.144;2023-12-14T17:12:15;4.53;;;3.00;;
83707;SDS011;73692;49.562;11.144;2023-12-14T17:14:41;5.05;;;2.80;;
83707;SDS011;73692;49.562;11.144;2023-12-14T17:19:32;4.93;;;3.30;;
83707;SDS011;73692;49.562;11.144;2023-12-14T17:24:22;4.50;;;2.73;;
83707;SDS011;73692;49.562;11.144;2023-12-14T17:29:13;4.57;;;2.33;;
83707;SDS011;73692;49.562;11.144;2023-12-14T17:34:04;4.68;;;2.20;;
83707;SDS011;73692;49.562;11.144;2023-12-14T17:36:30;4.93;;;2.58;;
83707;SDS011;73692;49.562;11.144;2023-12-14T17:38:55;3.78;;;2.00;;
83707;SDS011;73692;49.562;11.144;2023-12-14T17:41:21;4.60;;;2.72;;
83707;SDS011;73692;49.562;11.144;2023-12-14T17:46:15;3.97;;;2.47;;
83707;SDS011;73692;49.562;11.144;2023-12-14T17:48:40;3.35;;;2.22;;
83707;SDS011;73692;49.562;11.144;2023-12-14T17:53:31;3.67;;;2.38;;
83707;SDS011;73692;49.562;11.144;2023-12-14T17:55:59;5.38;;;2.60;;
83707;SDS011;73692;49.562;11.144;2023-12-14T17:58:24;3.78;;;2.25;;
83707;SDS011;73692;49.562;11.144;2023-12-14T18:03:14;3.20;;;2.13;;
83707;SDS011;73692;49.562;11.144;2023-12-14T18:05:40;4.28;;;2.10;;
83707;SDS011;73692;49.562;11.144;2023-12-14T18:08:05;5.03;;;2.38;;
83707;SDS011;73692;49.562;11.144;2023-12-14T18:10:30;3.60;;;2.35;;
83707;SDS011;73692;49.562;11.144;2023-12-14T18:15:23;5.60;;;2.80;;
83707;SDS011;73692;49.562;11.144;2023-12-14T18:20:14;5.07;;;2.93;;
83707;SDS011;73692;49.562;11.144;2023-12-14T18:25:05;5.47;;;3.50;;
83707;SDS011;73692;49.562;11.144;2023-12-14T18:27:30;6.82;;;2.00;;
83707;SDS011;73692;49.562;11.144;2023-12-14T18:29:56;5.27;;;3.07;;
83707;SDS011;73692;49.562;11.144;2023-12-14T18:32:21;4.83;;;2.80;;
83707;SDS011;73692;49.562;11.144;2023-12-14T18:37:12;4.40;;;2.67;;
83707;SDS011;73692;49.562;11.144;2023-12-14T18:39:41;4.38;;;2.63;;
83707;SDS011;73692;49.562;11.144;2023-12-14T18:42:07;3.75;;;2.42;;
83707;SDS011;73692;49.562;11.144;2023-12-14T18:46:58;4.93;;;3.30;;
83707;SDS011;73692;49.562;11.144;2023-12-14T18:51:48;5.10;;;2.90;;
83707;SDS011;73692;49.562;11.144;2023-12-14T18:56:39;4.73;;;3.00;;
83707;SDS011;73692;49.562;11.144;2023-12-14T18:59:04;5.10;;;3.08;;
83707;SDS011;73692;49.562;11.144;2023-12-14T19:01:29;5.20;;;3.03;;
83707;SDS011;73692;49.562;11.144;2023-12-14T19:06:21;5.72;;;3.40;;
83707;SDS011;73692;49.562;11.144;2023-12-14T19:08:47;5.47;;;2.72;;
83707;SDS011;73692;49.562;11.144;2023-12-14T19:11:15;5.37;;;3.40;;
83707;SDS011;73692;49.562;11.144;2023-12-14T19:13:41;5.65;;;3.67;;
83707;SDS011;73692;49.562;11.144;2023-12-14T19:18:32;5.78;;;3.28;;
83707;SDS011;73692;49.562;11.144;2023-12-14T19:23:23;7.70;;;4.03;;
83707;SDS011;73692;49.562;11.144;2023-12-14T19:28:14;7.18;;;4.13;;
83707;SDS011;73692;49.562;11.144;2023-12-14T19:33:04;6.83;;;4.30;;
83707;SDS011;73692;49.562;11.144;2023-12-14T19:37:55;7.30;;;3.97;;
83707;SDS011;73692;49.562;11.144;2023-12-14T19:42:46;7.20;;;3.83;;
83707;SDS011;73692;49.562;11.144;2023-12-14T19:47:37;6.73;;;3.93;;
83707;SDS011;73692;49.562;11.144;2023-12-14T19:50:06;6.53;;;3.67;;
83707;SDS011;73692;49.562;11.144;2023-12-14T19:52:32;7.40;;;4.15;;
83707;SDS011;73692;49.562;11.144;2023-12-14T19:54:59;13.57;;;6.95;;
83707;SDS011;73692;49.562;11.144;2023-12-14T19:57:26;14.85;;;6.32;;
83707;SDS011;73692;49.562;11.144;2023-12-14T20:02:17;10.43;;;5.03;;
83707;SDS011;73692;49.562;11.144;2023-12-14T20:07:07;8.60;;;4.78;;
83707;SDS011;73692;49.562;11.144;2023-12-14T20:12:00;6.90;;;4.15;;
83707;SDS011;73692;49.562;11.144;2023-12-14T20:14:25;7.97;;;4.60;;
83707;SDS011;73692;49.562;11.144;2023-12-14T20:16:51;7.60;;;4.93;;
83707;SDS011;73692;49.562;11.144;2023-12-14T20:19:16;7.43;;;3.93;;
83707;SDS011;73692;49.562;11.144;2023-12-14T20:21:41;7.50;;;4.72;;
83707;SDS011;73692;49.562;11.144;2023-12-14T20:26:32;11.07;;;5.83;;
83707;SDS011;73692;49.562;11.144;2023-12-14T20:31:23;8.23;;;4.18;;
83707;SDS011;73692;49.562;11.144;2023-12-14T20:36:14;10.25;;;5.50;;
83707;SDS011;73692;49.562;11.144;2023-12-14T20:38:39;7.22;;;4.47;;
83707;SDS011;73692;49.562;11.144;2023-12-14T20:43:30;8.50;;;5.27;;
83707;SDS011;73692;49.562;11.144;2023-12-14T20:48:22;9.68;;;4.70;;
83707;SDS011;73692;49.562;11.144;2023-12-14T20:50:47;7.30;;;4.50;;
83707;SDS011;73692;49.562;11.144;2023-12-14T20:53:13;7.03;;;4.10;;
83707;SDS011;73692;49.562;11.144;2023-12-14T20:58:04;5.83;;;3.30;;
83707;SDS011;73692;49.562;11.144;2023-12-14T21:00:31;7.55;;;3.63;;
83707;SDS011;73692;49.562;11.144;2023-12-14T21:05:22;5.27;;;3.43;;
83707;SDS011;73692;49.562;11.144;2023-12-14T21:10:12;6.93;;;3.90;;
83707;SDS011;73692;49.562;11.144;2023-12-14T21:12:38;6.47;;;3.85;;
83707;SDS011;73692;49.562;11.144;2023-12-14T21:17:29;6.45;;;3.90;;
83707;SDS011;73692;49.562;11.144;2023-12-14T21:19:54;7.00;;;3.80;;
83707;SDS011;73692;49.562;11.144;2023-12-14T21:22:20;6.75;;;4.38;;
83707;SDS011;73692;49.562;11.144;2023-12-14T21:27:13;6.80;;;3.65;;
83707;SDS011;73692;49.562;11.144;2023-12-14T21:29:57;7.28;;;3.75;;
83707;SDS011;73692;49.562;11.144;2023-12-14T21:34:48;6.25;;;4.03;;
83707;SDS011;73692;49.562;11.144;2023-12-14T21:37:16;6.80;;;3.93;;
83707;SDS011;73692;49.562;11.144;2023-12-14T21:39:42;6.80;;;4.30;;
83707;SDS011;73692;49.562;11.144;2023-12-14T21:42:07;8.88;;;4.65;;
83707;SDS011;73692;49.562;11.144;2023-12-14T21:46:58;7.43;;;4.63;;
83707;SDS011;73692;49.562;11.144;2023-12-14T21:51:51;6.05;;;3.53;;
83707;SDS011;73692;49.562;11.144;2023-12-14T21:56:42;5.93;;;3.70;;
83707;SDS011;73692;49.562;11.144;2023-12-14T21:59:07;7.82;;;4.63;;
83707;SDS011;73692;49.562;11.144;2023-12-14T22:01:33;7.65;;;4.38;;
83707;SDS011;73692;49.562;11.144;2023-12-14T22:06:24;7.72;;;3.80;;
83707;SDS011;73692;49.562;11.144;2023-12-14T22:11:15;7.03;;;4.83;;
83707;SDS011;73692;49.562;11.144;2023-12-14T22:16:06;14.03;;;8.03;;
83707;SDS011;73692;49.562;11.144;2023-12-14T22:20:56;21.50;;;12.60;;
83707;SDS011;73692;49.562;11.144;2023-12-14T22:25:48;8.02;;;4.90;;
83707;SDS011;73692;49.562;11.144;2023-12-14T22:30:39;8.63;;;4.00;;
83707;SDS011;73692;49.562;11.144;2023-12-14T22:35:30;11.00;;;5.80;;
83707;SDS011;73692;49.562;11.144;2023-12-14T22:40:20;9.73;;;5.70;;
83707;SDS011;73692;49.562;11.144;2023-12-14T22:45:11;7.97;;;5.00;;
83707;SDS011;73692;49.562;11.144;2023-12-14T22:47:37;11.10;;;5.70;;
83707;SDS011;73692;49.562;11.144;2023-12-14T22:50:03;12.02;;;6.57;;
83707;SDS011;73692;49.562;11.144;2023-12-14T22:52:30;8.85;;;5.10;;
83707;SDS011;73692;49.562;11.144;2023-12-14T22:54:56;8.55;;;5.03;;
83707;SDS011;73692;49.562;11.144;2023-12-14T22:57:21;9.25;;;4.82;;
83707;SDS011;73692;49.562;11.144;2023-12-14T23:02:12;7.07;;;4.70;;
83707;SDS011;73692;49.562;11.144;2023-12-14T23:04:37;7.75;;;4.53;;
83707;SDS011;73692;49.562;11.144;2023-12-14T23:07:04;7.43;;;4.30;;
83707;SDS011;73692;49.562;11.144;2023-12-14T23:09:29;6.88;;;4.18;;
83707;SDS011;73692;49.562;11.144;2023-12-14T23:11:55;7.82;;;4.20;;
83707;SDS011;73692;49.562;11.144;2023-12-14T23:16:45;7.43;;;4.03;;
83707;SDS011;73692;49.562;11.144;2023-12-14T23:19:11;7.80;;;4.57;;
83707;SDS011;73692;49.562;11.144;2023-12-14T23:24:02;7.00;;;3.93;;
83707;SDS011;73692;49.562;11.144;2023-12-14T23:28:52;7.43;;;4.77;;
83707;SDS011;73692;49.562;11.144;2023-12-14T23:31:18;6.97;;;3.47;;
83707;SDS011;73692;49.562;11.144;2023-12-14T23:33:44;7.40;;;4.05;;
83707;SDS011;73692;49.562;11.144;2023-12-14T23:36:09;8.07;;;4.55;;
83707;SDS011;73692;49.562;11.144;2023-12-14T23:38:35;8.90;;;4.38;;